Westville, Oklahoma
Current Conditions -  °F | °C
As of 12:15 PM on Saturday 22 Nov 2014 (Local Time) from KSLG Reporting Station
Broken Clouds Broken Clouds  
Wind Chill: 54°   Ceiling: 2700
Heat Index: 54°   Visibility: 5mi
Dew Point: 46°   Wind: 13mph
Humidity: 77%   Direction: 180°S
Pressure: 30.07"   Gusts: NA
Location:  35.99°N, 94.57°W
Report Text: KSLG 221815Z AUTO 18011KT 5SM SCT006 BKN027 12/08 A3007 RMK AO1 LTG DSNT SE
Loading
Personal Weather Stations






























Interactive Weather Map New forecast layout! Learn more

10-Day Weather Forecast

Advertisements
Track Severe Weather on mobile